sensor_id;sensor_type;location;lat;lon;timestamp;temperature;humidity
16785;DHT22;8509;52.178;5.404;2023-09-30T00:00:26;11.90;99.90
16785;DHT22;8509;52.178;5.404;2023-09-30T00:02:52;12.10;99.90
16785;DHT22;8509;52.178;5.404;2023-09-30T00:05:18;12.10;99.90
16785;DHT22;8509;52.178;5.404;2023-09-30T00:07:46;12.20;99.90
16785;DHT22;8509;52.178;5.404;2023-09-30T00:10:12;12.10;99.90
16785;DHT22;8509;52.178;5.404;2023-09-30T00:12:38;12.10;99.90
16785;DHT22;8509;52.178;5.404;2023-09-30T00:15:04;12.20;99.90
16785;DHT22;8509;52.178;5.404;2023-09-30T00:17:30;12.10;99.90
16785;DHT22;8509;52.178;5.404;2023-09-30T00:19:56;12.20;99.90
16785;DHT22;8509;52.178;5.404;2023-09-30T00:22:21;12.30;99.90
16785;DHT22;8509;52.178;5.404;2023-09-30T00:24:47;12.20;99.90
16785;DHT22;8509;52.178;5.404;2023-09-30T00:27:13;12.10;99.90
16785;DHT22;8509;52.178;5.404;2023-09-30T00:29:39;12.10;99.90
16785;DHT22;8509;52.178;5.404;2023-09-30T00:32:05;12.10;99.90
16785;DHT22;8509;52.178;5.404;2023-09-30T00:34:34;12.10;99.90
16785;DHT22;8509;52.178;5.404;2023-09-30T00:37:01;12.10;99.90
16785;DHT22;8509;52.178;5.404;2023-09-30T00:39:26;12.10;99.90
16785;DHT22;8509;52.178;5.404;2023-09-30T00:41:58;12.00;99.90
16785;DHT22;8509;52.178;5.404;2023-09-30T00:44:28;12.10;99.90
16785;DHT22;8509;52.178;5.404;2023-09-30T00:46:54;12.00;99.90
16785;DHT22;8509;52.178;5.404;2023-09-30T00:49:23;11.90;99.90
16785;DHT22;8509;52.178;5.404;2023-09-30T00:51:49;11.90;99.90
16785;DHT22;8509;52.178;5.404;2023-09-30T00:54:15;11.90;99.90
16785;DHT22;8509;52.178;5.404;2023-09-30T00:56:46;11.80;99.90
16785;DHT22;8509;52.178;5.404;2023-09-30T00:59:15;11.80;99.90
16785;DHT22;8509;52.178;5.404;2023-09-30T01:01:45;11.80;99.90
16785;DHT22;8509;52.178;5.404;2023-09-30T01:04:11;11.80;99.90
16785;DHT22;8509;52.178;5.404;2023-09-30T01:06:37;11.80;99.90
16785;DHT22;8509;52.178;5.404;2023-09-30T01:09:03;11.80;99.90
16785;DHT22;8509;52.178;5.404;2023-09-30T01:11:30;11.80;99.90
16785;DHT22;8509;52.178;5.404;2023-09-30T01:13:56;11.80;99.90
16785;DHT22;8509;52.178;5.404;2023-09-30T01:16:23;11.80;99.90
16785;DHT22;8509;52.178;5.404;2023-09-30T01:18:52;11.80;99.90
16785;DHT22;8509;52.178;5.404;2023-09-30T01:21:18;11.70;99.90
16785;DHT22;8509;52.178;5.404;2023-09-30T01:23:44;11.70;99.90
16785;DHT22;8509;52.178;5.404;2023-09-30T01:26:12;11.70;99.90
16785;DHT22;8509;52.178;5.404;2023-09-30T01:28:38;11.60;99.90
16785;DHT22;8509;52.178;5.404;2023-09-30T01:31:04;11.60;99.90
16785;DHT22;8509;52.178;5.404;2023-09-30T01:33:31;11.60;99.90
16785;DHT22;8509;52.178;5.404;2023-09-30T01:35:57;11.50;99.90
16785;DHT22;8509;52.178;5.404;2023-09-30T01:38:23;11.50;99.90
16785;DHT22;8509;52.178;5.404;2023-09-30T01:40:49;11.50;99.90
16785;DHT22;8509;52.178;5.404;2023-09-30T01:43:15;11.50;99.90
16785;DHT22;8509;52.178;5.404;2023-09-30T01:45:42;11.40;99.90
16785;DHT22;8509;52.178;5.404;2023-09-30T01:48:08;11.50;99.90
16785;DHT22;8509;52.178;5.404;2023-09-30T01:50:37;11.40;99.90
16785;DHT22;8509;52.178;5.404;2023-09-30T01:53:04;11.40;99.90
16785;DHT22;8509;52.178;5.404;2023-09-30T01:55:32;11.40;99.90
16785;DHT22;8509;52.178;5.404;2023-09-30T01:57:58;11.40;99.90
16785;DHT22;8509;52.178;5.404;2023-09-30T02:00:23;11.50;99.90
16785;DHT22;8509;52.178;5.404;2023-09-30T02:02:49;11.40;99.90
16785;DHT22;8509;52.178;5.404;2023-09-30T02:05:15;11.40;99.90
16785;DHT22;8509;52.178;5.404;2023-09-30T02:07:41;11.40;99.90
16785;DHT22;8509;52.178;5.404;2023-09-30T02:10:07;11.40;99.90
16785;DHT22;8509;52.178;5.404;2023-09-30T02:12:33;11.40;99.90
16785;DHT22;8509;52.178;5.404;2023-09-30T02:14:59;11.40;99.90
16785;DHT22;8509;52.178;5.404;2023-09-30T02:17:24;11.30;99.90
16785;DHT22;8509;52.178;5.404;2023-09-30T02:19:50;11.40;99.90
16785;DHT22;8509;52.178;5.404;2023-09-30T02:22:16;11.40;99.90
16785;DHT22;8509;52.178;5.404;2023-09-30T02:24:41;11.30;99.90
16785;DHT22;8509;52.178;5.404;2023-09-30T02:27:07;11.30;99.90
16785;DHT22;8509;52.178;5.404;2023-09-30T02:29:33;11.40;99.90
16785;DHT22;8509;52.178;5.404;2023-09-30T02:31:59;11.40;99.90
16785;DHT22;8509;52.178;5.404;2023-09-30T02:34:24;11.40;99.90
16785;DHT22;8509;52.178;5.404;2023-09-30T02:36:50;11.50;99.90
16785;DHT22;8509;52.178;5.404;2023-09-30T02:39:17;11.50;99.90
16785;DHT22;8509;52.178;5.404;2023-09-30T02:41:43;11.60;99.90
16785;DHT22;8509;52.178;5.404;2023-09-30T02:44:10;11.60;99.90
16785;DHT22;8509;52.178;5.404;2023-09-30T02:46:36;11.60;99.90
16785;DHT22;8509;52.178;5.404;2023-09-30T02:49:03;11.70;99.90
16785;DHT22;8509;52.178;5.404;2023-09-30T02:51:28;11.80;99.90
16785;DHT22;8509;52.178;5.404;2023-09-30T02:53:56;11.80;99.90
16785;DHT22;8509;52.178;5.404;2023-09-30T02:56:21;11.80;99.90
16785;DHT22;8509;52.178;5.404;2023-09-30T02:58:52;11.80;99.90
16785;DHT22;8509;52.178;5.404;2023-09-30T03:01:18;11.80;99.90
16785;DHT22;8509;52.178;5.404;2023-09-30T03:03:44;11.90;99.90
16785;DHT22;8509;52.178;5.404;2023-09-30T03:06:10;11.90;99.90
16785;DHT22;8509;52.178;5.404;2023-09-30T03:08:36;11.90;99.90
16785;DHT22;8509;52.178;5.404;2023-09-30T03:11:03;12.00;99.90
16785;DHT22;8509;52.178;5.404;2023-09-30T03:13:30;12.00;99.90
16785;DHT22;8509;52.178;5.404;2023-09-30T03:15:56;12.10;99.90
16785;DHT22;8509;52.178;5.404;2023-09-30T03:18:28;12.00;99.90
16785;DHT22;8509;52.178;5.404;2023-09-30T03:20:59;11.90;99.90
16785;DHT22;8509;52.178;5.404;2023-09-30T03:23:34;12.00;99.90
16785;DHT22;8509;52.178;5.404;2023-09-30T03:26:00;12.00;99.90
16785;DHT22;8509;52.178;5.404;2023-09-30T03:28:27;12.00;99.90
16785;DHT22;8509;52.178;5.404;2023-09-30T03:30:53;12.00;99.90
16785;DHT22;8509;52.178;5.404;2023-09-30T03:33:18;12.10;99.90
16785;DHT22;8509;52.178;5.404;2023-09-30T03:35:44;12.00;99.90
16785;DHT22;8509;52.178;5.404;2023-09-30T03:38:10;12.00;99.90
16785;DHT22;8509;52.178;5.404;2023-09-30T03:40:39;12.00;99.90
16785;DHT22;8509;52.178;5.404;2023-09-30T03:43:05;12.00;99.90
16785;DHT22;8509;52.178;5.404;2023-09-30T03:45:31;12.10;99.90
16785;DHT22;8509;52.178;5.404;2023-09-30T03:48:02;12.20;99.90
16785;DHT22;8509;52.178;5.404;2023-09-30T03:50:28;12.10;99.90
16785;DHT22;8509;52.178;5.404;2023-09-30T03:53:01;12.00;99.90
16785;DHT22;8509;52.178;5.404;2023-09-30T03:55:27;12.00;99.90
16785;DHT22;8509;52.178;5.404;2023-09-30T03:57:55;12.10;99.90
16785;DHT22;8509;52.178;5.404;2023-09-30T04:00:21;12.00;99.90
16785;DHT22;8509;52.178;5.404;2023-09-30T04:02:47;12.10;99.90
16785;DHT22;8509;52.178;5.404;2023-09-30T04:05:15;12.10;99.90
16785;DHT22;8509;52.178;5.404;2023-09-30T04:07:42;12.10;99.90
16785;DHT22;8509;52.178;5.404;2023-09-30T04:10:09;12.00;99.90
16785;DHT22;8509;52.178;5.404;2023-09-30T04:12:35;12.10;99.90
16785;DHT22;8509;52.178;5.404;2023-09-30T04:15:01;12.00;99.90
16785;DHT22;8509;52.178;5.404;2023-09-30T04:17:29;12.00;99.90
16785;DHT22;8509;52.178;5.404;2023-09-30T04:19:54;12.10;99.90
16785;DHT22;8509;52.178;5.404;2023-09-30T04:22:20;12.20;99.90
16785;DHT22;8509;52.178;5.404;2023-09-30T04:24:50;12.00;99.90
16785;DHT22;8509;52.178;5.404;2023-09-30T04:27:16;12.00;99.90
16785;DHT22;8509;52.178;5.404;2023-09-30T04:29:43;12.10;99.90
16785;DHT22;8509;52.178;5.404;2023-09-30T04:32:09;12.10;99.90
16785;DHT22;8509;52.178;5.404;2023-09-30T04:34:35;12.10;99.90
16785;DHT22;8509;52.178;5.404;2023-09-30T04:37:01;12.10;99.90
16785;DHT22;8509;52.178;5.404;2023-09-30T04:39:27;12.00;99.90
16785;DHT22;8509;52.178;5.404;2023-09-30T04:41:54;12.00;99.90
16785;DHT22;8509;52.178;5.404;2023-09-30T04:44:20;12.00;99.90
16785;DHT22;8509;52.178;5.404;2023-09-30T04:46:48;12.10;99.90
16785;DHT22;8509;52.178;5.404;2023-09-30T04:49:15;12.00;99.90
16785;DHT22;8509;52.178;5.404;2023-09-30T04:51:42;12.00;99.90
16785;DHT22;8509;52.178;5.404;2023-09-30T04:54:08;12.10;99.90
16785;DHT22;8509;52.178;5.404;2023-09-30T04:56:36;12.10;99.90
16785;DHT22;8509;52.178;5.404;2023-09-30T04:59:04;12.00;99.90
16785;DHT22;8509;52.178;5.404;2023-09-30T05:01:29;12.00;99.90
16785;DHT22;8509;52.178;5.404;2023-09-30T05:03:55;12.10;99.90
16785;DHT22;8509;52.178;5.404;2023-09-30T05:06:21;12.00;99.90
16785;DHT22;8509;52.178;5.404;2023-09-30T05:08:47;12.10;99.90
16785;DHT22;8509;52.178;5.404;2023-09-30T05:11:15;12.00;99.90
16785;DHT22;8509;52.178;5.404;2023-09-30T05:13:41;12.10;99.90
16785;DHT22;8509;52.178;5.404;2023-09-30T05:16:06;12.00;99.90
16785;DHT22;8509;52.178;5.404;2023-09-30T05:18:35;12.00;99.90
16785;DHT22;8509;52.178;5.404;2023-09-30T05:21:01;11.90;99.90
16785;DHT22;8509;52.178;5.404;2023-09-30T05:23:26;11.90;99.90
16785;DHT22;8509;52.178;5.404;2023-09-30T05:25:52;11.90;99.90
16785;DHT22;8509;52.178;5.404;2023-09-30T05:28:20;11.90;99.90
16785;DHT22;8509;52.178;5.404;2023-09-30T05:30:45;11.90;99.90
16785;DHT22;8509;52.178;5.404;2023-09-30T05:33:11;11.70;99.90
16785;DHT22;8509;52.178;5.404;2023-09-30T05:35:41;11.70;99.90
16785;DHT22;8509;52.178;5.404;2023-09-30T05:38:08;11.70;99.90
16785;DHT22;8509;52.178;5.404;2023-09-30T05:40:33;11.70;99.90
16785;DHT22;8509;52.178;5.404;2023-09-30T05:42:59;11.70;99.90
16785;DHT22;8509;52.178;5.404;2023-09-30T05:45:27;11.70;99.90
16785;DHT22;8509;52.178;5.404;2023-09-30T05:47:54;11.60;99.90
16785;DHT22;8509;52.178;5.404;2023-09-30T05:50:20;11.60;99.90
16785;DHT22;8509;52.178;5.404;2023-09-30T05:52:53;11.70;99.90
16785;DHT22;8509;52.178;5.404;2023-09-30T05:55:20;11.80;99.90
16785;DHT22;8509;52.178;5.404;2023-09-30T05:57:47;11.60;99.90
16785;DHT22;8509;52.178;5.404;2023-09-30T06:00:15;11.60;99.90
16785;DHT22;8509;52.178;5.404;2023-09-30T06:03:01;11.70;99.90
16785;DHT22;8509;52.178;5.404;2023-09-30T06:05:27;11.70;99.90
16785;DHT22;8509;52.178;5.404;2023-09-30T06:07:55;11.70;99.90
16785;DHT22;8509;52.178;5.404;2023-09-30T06:10:22;11.70;99.90
16785;DHT22;8509;52.178;5.404;2023-09-30T06:12:48;11.70;99.90
16785;DHT22;8509;52.178;5.404;2023-09-30T06:15:17;11.60;99.90
16785;DHT22;8509;52.178;5.404;2023-09-30T06:18:09;11.80;99.90
16785;DHT22;8509;52.178;5.404;2023-09-30T06:20:40;11.90;99.90
16785;DHT22;8509;52.178;5.404;2023-09-30T06:23:06;11.90;99.90
16785;DHT22;8509;52.178;5.404;2023-09-30T06:25:32;12.00;99.90
16785;DHT22;8509;52.178;5.404;2023-09-30T06:27:58;12.00;99.90
16785;DHT22;8509;52.178;5.404;2023-09-30T06:30:24;12.10;99.90
16785;DHT22;8509;52.178;5.404;2023-09-30T06:32:59;12.10;99.90
16785;DHT22;8509;52.178;5.404;2023-09-30T06:35:28;12.20;99.90
16785;DHT22;8509;52.178;5.404;2023-09-30T06:37:55;12.30;99.90
16785;DHT22;8509;52.178;5.404;2023-09-30T06:40:21;12.30;99.90
16785;DHT22;8509;52.178;5.404;2023-09-30T06:42:47;12.30;99.90
16785;DHT22;8509;52.178;5.404;2023-09-30T06:45:13;12.40;99.90
16785;DHT22;8509;52.178;5.404;2023-09-30T06:47:40;12.40;99.90
16785;DHT22;8509;52.178;5.404;2023-09-30T06:50:13;12.50;99.90
16785;DHT22;8509;52.178;5.404;2023-09-30T06:52:43;12.60;99.90
16785;DHT22;8509;52.178;5.404;2023-09-30T06:55:14;12.60;99.90
16785;DHT22;8509;52.178;5.404;2023-09-30T06:57:43;12.70;99.90
16785;DHT22;8509;52.178;5.404;2023-09-30T07:00:09;12.70;99.90
16785;DHT22;8509;52.178;5.404;2023-09-30T07:02:37;12.80;99.90
16785;DHT22;8509;52.178;5.404;2023-09-30T07:05:13;12.90;99.90
16785;DHT22;8509;52.178;5.404;2023-09-30T07:07:39;13.00;99.90
16785;DHT22;8509;52.178;5.404;2023-09-30T07:10:06;13.10;99.90
16785;DHT22;8509;52.178;5.404;2023-09-30T07:12:32;13.20;99.90
16785;DHT22;8509;52.178;5.404;2023-09-30T07:15:03;13.40;99.90
16785;DHT22;8509;52.178;5.404;2023-09-30T07:17:30;13.50;99.90
16785;DHT22;8509;52.178;5.404;2023-09-30T07:19:56;13.70;99.90
16785;DHT22;8509;52.178;5.404;2023-09-30T07:22:22;13.80;99.90
16785;DHT22;8509;52.178;5.404;2023-09-30T07:24:48;14.10;99.90
16785;DHT22;8509;52.178;5.404;2023-09-30T07:27:13;14.30;99.90
16785;DHT22;8509;52.178;5.404;2023-09-30T07:29:40;14.60;99.90
16785;DHT22;8509;52.178;5.404;2023-09-30T07:32:06;14.80;99.90
16785;DHT22;8509;52.178;5.404;2023-09-30T07:34:32;15.10;99.90
16785;DHT22;8509;52.178;5.404;2023-09-30T07:36:58;15.40;99.90
16785;DHT22;8509;52.178;5.404;2023-09-30T07:39:23;15.70;99.90
16785;DHT22;8509;52.178;5.404;2023-09-30T07:41:50;15.90;99.90
16785;DHT22;8509;52.178;5.404;2023-09-30T07:44:16;16.10;99.90
16785;DHT22;8509;52.178;5.404;2023-09-30T07:46:42;16.20;99.90
16785;DHT22;8509;52.178;5.404;2023-09-30T07:49:11;16.30;99.90
16785;DHT22;8509;52.178;5.404;2023-09-30T07:51:37;16.30;99.90
16785;DHT22;8509;52.178;5.404;2023-09-30T07:54:05;16.40;99.90
16785;DHT22;8509;52.178;5.404;2023-09-30T07:56:31;16.70;99.90
16785;DHT22;8509;52.178;5.404;2023-09-30T07:58:56;17.20;99.90
16785;DHT22;8509;52.178;5.404;2023-09-30T08:01:22;17.50;99.90
16785;DHT22;8509;52.178;5.404;2023-09-30T08:03:48;17.60;99.90
16785;DHT22;8509;52.178;5.404;2023-09-30T08:06:13;17.80;99.90
16785;DHT22;8509;52.178;5.404;2023-09-30T08:08:39;17.90;99.90
16785;DHT22;8509;52.178;5.404;2023-09-30T08:11:06;18.10;99.90
16785;DHT22;8509;52.178;5.404;2023-09-30T08:13:32;18.60;99.90
16785;DHT22;8509;52.178;5.404;2023-09-30T08:16:01;18.90;99.90
16785;DHT22;8509;52.178;5.404;2023-09-30T08:18:27;19.20;99.90
16785;DHT22;8509;52.178;5.404;2023-09-30T08:20:52;19.30;99.90
16785;DHT22;8509;52.178;5.404;2023-09-30T08:23:18;19.50;99.90
16785;DHT22;8509;52.178;5.404;2023-09-30T08:25:44;19.50;99.90
16785;DHT22;8509;52.178;5.404;2023-09-30T08:28:13;19.60;99.90
16785;DHT22;8509;52.178;5.404;2023-09-30T08:30:40;19.60;99.90
16785;DHT22;8509;52.178;5.404;2023-09-30T08:33:05;19.60;99.90
16785;DHT22;8509;52.178;5.404;2023-09-30T08:35:36;19.50;99.90
16785;DHT22;8509;52.178;5.404;2023-09-30T08:38:03;19.30;99.90
16785;DHT22;8509;52.178;5.404;2023-09-30T08:40:29;19.20;99.90
16785;DHT22;8509;52.178;5.404;2023-09-30T08:42:55;19.10;99.90
16785;DHT22;8509;52.178;5.404;2023-09-30T08:45:20;19.00;99.90
16785;DHT22;8509;52.178;5.404;2023-09-30T08:47:46;19.10;99.90
16785;DHT22;8509;52.178;5.404;2023-09-30T08:50:13;19.30;99.90
16785;DHT22;8509;52.178;5.404;2023-09-30T08:52:41;19.60;99.90
16785;DHT22;8509;52.178;5.404;2023-09-30T08:55:11;19.80;99.90
16785;DHT22;8509;52.178;5.404;2023-09-30T08:57:42;19.90;99.90
16785;DHT22;8509;52.178;5.404;2023-09-30T09:00:10;20.00;99.90
16785;DHT22;8509;52.178;5.404;2023-09-30T09:02:39;19.80;99.90
16785;DHT22;8509;52.178;5.404;2023-09-30T09:05:06;19.60;99.90
16785;DHT22;8509;52.178;5.404;2023-09-30T09:07:32;19.40;99.90
16785;DHT22;8509;52.178;5.404;2023-09-30T09:10:05;19.30;99.90
16785;DHT22;8509;52.178;5.404;2023-09-30T09:12:34;19.30;99.90
16785;DHT22;8509;52.178;5.404;2023-09-30T09:14:59;19.20;99.90
16785;DHT22;8509;52.178;5.404;2023-09-30T09:17:40;19.20;99.90
16785;DHT22;8509;52.178;5.404;2023-09-30T09:20:07;19.00;99.90
16785;DHT22;8509;52.178;5.404;2023-09-30T09:22:43;19.00;99.90
16785;DHT22;8509;52.178;5.404;2023-09-30T09:25:09;19.00;99.90
16785;DHT22;8509;52.178;5.404;2023-09-30T09:27:35;19.10;99.90
16785;DHT22;8509;52.178;5.404;2023-09-30T09:30:21;19.10;99.90
16785;DHT22;8509;52.178;5.404;2023-09-30T09:33:04;19.30;99.90
16785;DHT22;8509;52.178;5.404;2023-09-30T09:35:34;19.50;99.90
16785;DHT22;8509;52.178;5.404;2023-09-30T09:38:02;19.80;99.90
16785;DHT22;8509;52.178;5.404;2023-09-30T09:40:31;20.10;99.90
16785;DHT22;8509;52.178;5.404;2023-09-30T09:42:58;20.20;99.90
16785;DHT22;8509;52.178;5.404;2023-09-30T09:45:26;20.30;99.90
16785;DHT22;8509;52.178;5.404;2023-09-30T09:47:53;20.30;99.90
16785;DHT22;8509;52.178;5.404;2023-09-30T09:50:22;20.50;99.90
16785;DHT22;8509;52.178;5.404;2023-09-30T09:52:49;20.60;99.90
16785;DHT22;8509;52.178;5.404;2023-09-30T09:55:17;20.40;99.90
16785;DHT22;8509;52.178;5.404;2023-09-30T09:57:45;20.40;99.90
16785;DHT22;8509;52.178;5.404;2023-09-30T10:00:17;20.40;99.90
16785;DHT22;8509;52.178;5.404;2023-09-30T10:02:45;20.40;99.90
16785;DHT22;8509;52.178;5.404;2023-09-30T10:05:12;20.50;99.90
16785;DHT22;8509;52.178;5.404;2023-09-30T10:07:43;20.50;99.90
16785;DHT22;8509;52.178;5.404;2023-09-30T10:10:17;20.50;99.90
16785;DHT22;8509;52.178;5.404;2023-09-30T10:12:43;20.40;99.90
16785;DHT22;8509;52.178;5.404;2023-09-30T10:15:38;20.40;99.90
16785;DHT22;8509;52.178;5.404;2023-09-30T10:18:11;20.20;99.90
16785;DHT22;8509;52.178;5.404;2023-09-30T10:20:38;20.10;99.90
16785;DHT22;8509;52.178;5.404;2023-09-30T10:23:26;20.00;99.90
16785;DHT22;8509;52.178;5.404;2023-09-30T10:26:14;19.80;99.90
16785;DHT22;8509;52.178;5.404;2023-09-30T10:28:44;19.70;99.90
16785;DHT22;8509;52.178;5.404;2023-09-30T10:31:20;19.70;99.90
16785;DHT22;8509;52.178;5.404;2023-09-30T10:36:39;19.60;99.90
16785;DHT22;8509;52.178;5.404;2023-09-30T10:39:06;19.70;99.90
16785;DHT22;8509;52.178;5.404;2023-09-30T10:46:59;19.90;99.90
16785;DHT22;8509;52.178;5.404;2023-09-30T10:51:58;19.80;99.90
16785;DHT22;8509;52.178;5.404;2023-09-30T10:54:27;19.60;99.90
16785;DHT22;8509;52.178;5.404;2023-09-30T10:56:53;19.60;99.90
16785;DHT22;8509;52.178;5.404;2023-09-30T10:59:22;19.80;99.90
16785;DHT22;8509;52.178;5.404;2023-09-30T11:01:49;19.90;99.90
16785;DHT22;8509;52.178;5.404;2023-09-30T11:04:15;20.00;99.90
16785;DHT22;8509;52.178;5.404;2023-09-30T11:06:42;20.10;99.90
16785;DHT22;8509;52.178;5.404;2023-09-30T11:09:08;20.10;99.90
16785;DHT22;8509;52.178;5.404;2023-09-30T11:11:42;20.10;99.90
16785;DHT22;8509;52.178;5.404;2023-09-30T11:14:30;20.20;99.90
16785;DHT22;8509;52.178;5.404;2023-09-30T11:17:00;20.20;99.90
16785;DHT22;8509;52.178;5.404;2023-09-30T11:19:37;20.20;99.90
16785;DHT22;8509;52.178;5.404;2023-09-30T11:22:11;20.10;99.90
16785;DHT22;8509;52.178;5.404;2023-09-30T11:24:37;20.20;99.90
16785;DHT22;8509;52.178;5.404;2023-09-30T11:27:02;20.20;99.90
16785;DHT22;8509;52.178;5.404;2023-09-30T11:29:29;20.20;99.90
16785;DHT22;8509;52.178;5.404;2023-09-30T11:31:56;20.40;99.90
16785;DHT22;8509;52.178;5.404;2023-09-30T11:34:33;20.30;99.90
16785;DHT22;8509;52.178;5.404;2023-09-30T11:37:01;20.40;99.90
16785;DHT22;8509;52.178;5.404;2023-09-30T11:39:29;20.40;99.90
16785;DHT22;8509;52.178;5.404;2023-09-30T11:41:57;20.40;99.90
16785;DHT22;8509;52.178;5.404;2023-09-30T11:44:24;20.40;99.90
16785;DHT22;8509;52.178;5.404;2023-09-30T11:46:55;20.40;99.90
16785;DHT22;8509;52.178;5.404;2023-09-30T11:49:52;20.30;99.90
16785;DHT22;8509;52.178;5.404;2023-09-30T11:52:26;20.20;99.90
16785;DHT22;8509;52.178;5.404;2023-09-30T11:54:52;20.00;99.90
16785;DHT22;8509;52.178;5.404;2023-09-30T11:57:18;19.80;99.90
16785;DHT22;8509;52.178;5.404;2023-09-30T11:59:45;19.70;99.90
16785;DHT22;8509;52.178;5.404;2023-09-30T12:02:12;19.80;99.90
16785;DHT22;8509;52.178;5.404;2023-09-30T12:04:38;19.90;99.90
16785;DHT22;8509;52.178;5.404;2023-09-30T12:07:04;20.00;99.90
16785;DHT22;8509;52.178;5.404;2023-09-30T12:09:32;20.20;99.90
16785;DHT22;8509;52.178;5.404;2023-09-30T12:12:00;20.40;99.90
16785;DHT22;8509;52.178;5.404;2023-09-30T12:14:26;20.50;99.90
16785;DHT22;8509;52.178;5.404;2023-09-30T12:16:52;20.60;99.90
16785;DHT22;8509;52.178;5.404;2023-09-30T12:19:18;20.70;99.90
16785;DHT22;8509;52.178;5.404;2023-09-30T12:21:44;20.80;99.90
16785;DHT22;8509;52.178;5.404;2023-09-30T12:24:17;20.90;99.90
16785;DHT22;8509;52.178;5.404;2023-09-30T12:26:45;20.90;99.90
16785;DHT22;8509;52.178;5.404;2023-09-30T12:29:17;20.80;99.90
16785;DHT22;8509;52.178;5.404;2023-09-30T12:31:50;20.70;99.90
16785;DHT22;8509;52.178;5.404;2023-09-30T12:34:16;20.60;99.90
16785;DHT22;8509;52.178;5.404;2023-09-30T12:36:42;20.60;99.90
16785;DHT22;8509;52.178;5.404;2023-09-30T12:39:09;20.60;99.90
16785;DHT22;8509;52.178;5.404;2023-09-30T12:41:42;20.40;99.90
16785;DHT22;8509;52.178;5.404;2023-09-30T12:44:09;20.30;99.90
16785;DHT22;8509;52.178;5.404;2023-09-30T12:46:35;20.30;99.90
16785;DHT22;8509;52.178;5.404;2023-09-30T12:49:06;20.20;99.90
16785;DHT22;8509;52.178;5.404;2023-09-30T12:51:32;20.10;99.90
16785;DHT22;8509;52.178;5.404;2023-09-30T12:53:59;20.00;99.90
16785;DHT22;8509;52.178;5.404;2023-09-30T12:56:25;19.80;99.90
16785;DHT22;8509;52.178;5.404;2023-09-30T12:58:51;19.80;99.90
16785;DHT22;8509;52.178;5.404;2023-09-30T13:01:17;19.70;99.90
16785;DHT22;8509;52.178;5.404;2023-09-30T13:03:46;19.60;99.90
16785;DHT22;8509;52.178;5.404;2023-09-30T13:06:13;19.40;99.90
16785;DHT22;8509;52.178;5.404;2023-09-30T13:08:39;19.40;99.90
16785;DHT22;8509;52.178;5.404;2023-09-30T13:11:05;19.40;99.90
16785;DHT22;8509;52.178;5.404;2023-09-30T13:13:32;19.40;99.90
16785;DHT22;8509;52.178;5.404;2023-09-30T13:16:02;19.40;99.90
16785;DHT22;8509;52.178;5.404;2023-09-30T13:18:31;19.30;99.90
16785;DHT22;8509;52.178;5.404;2023-09-30T13:20:57;19.40;99.90
16785;DHT22;8509;52.178;5.404;2023-09-30T13:23:22;19.50;99.90
16785;DHT22;8509;52.178;5.404;2023-09-30T13:25:48;19.80;99.90
16785;DHT22;8509;52.178;5.404;2023-09-30T13:28:13;20.10;99.90
16785;DHT22;8509;52.178;5.404;2023-09-30T13:30:39;20.20;99.90
16785;DHT22;8509;52.178;5.404;2023-09-30T13:33:06;20.30;99.90
16785;DHT22;8509;52.178;5.404;2023-09-30T13:35:31;20.20;99.90
16785;DHT22;8509;52.178;5.404;2023-09-30T13:37:57;20.10;99.90
16785;DHT22;8509;52.178;5.404;2023-09-30T13:40:23;20.00;99.90
16785;DHT22;8509;52.178;5.404;2023-09-30T13:42:49;19.90;99.90
16785;DHT22;8509;52.178;5.404;2023-09-30T13:45:14;19.70;99.90
16785;DHT22;8509;52.178;5.404;2023-09-30T13:47:43;19.60;99.90
16785;DHT22;8509;52.178;5.404;2023-09-30T13:50:09;19.50;99.90
16785;DHT22;8509;52.178;5.404;2023-09-30T13:52:35;19.50;99.90
16785;DHT22;8509;52.178;5.404;2023-09-30T13:55:01;19.40;99.90
16785;DHT22;8509;52.178;5.404;2023-09-30T13:57:28;19.40;99.90
16785;DHT22;8509;52.178;5.404;2023-09-30T13:59:56;19.40;99.90
16785;DHT22;8509;52.178;5.404;2023-09-30T14:02:22;19.50;99.90
16785;DHT22;8509;52.178;5.404;2023-09-30T14:04:48;19.50;99.90
16785;DHT22;8509;52.178;5.404;2023-09-30T14:07:15;19.70;99.90
16785;DHT22;8509;52.178;5.404;2023-09-30T14:09:44;19.90;99.90
16785;DHT22;8509;52.178;5.404;2023-09-30T14:12:10;20.10;99.90
16785;DHT22;8509;52.178;5.404;2023-09-30T14:14:36;20.10;99.90
16785;DHT22;8509;52.178;5.404;2023-09-30T14:17:02;20.00;99.90
16785;DHT22;8509;52.178;5.404;2023-09-30T14:19:36;19.80;99.90
16785;DHT22;8509;52.178;5.404;2023-09-30T14:22:02;19.70;99.90
16785;DHT22;8509;52.178;5.404;2023-09-30T14:24:30;19.70;99.90
16785;DHT22;8509;52.178;5.404;2023-09-30T14:26:56;19.70;99.90
16785;DHT22;8509;52.178;5.404;2023-09-30T14:29:22;19.70;99.90
16785;DHT22;8509;52.178;5.404;2023-09-30T14:31:47;19.70;99.90
16785;DHT22;8509;52.178;5.404;2023-09-30T14:34:13;19.80;99.90
16785;DHT22;8509;52.178;5.404;2023-09-30T14:36:40;19.80;99.90
16785;DHT22;8509;52.178;5.404;2023-09-30T14:39:06;19.90;99.90
16785;DHT22;8509;52.178;5.404;2023-09-30T14:41:31;19.90;99.90
16785;DHT22;8509;52.178;5.404;2023-09-30T14:43:58;19.90;99.90
16785;DHT22;8509;52.178;5.404;2023-09-30T14:46:23;19.90;99.90
16785;DHT22;8509;52.178;5.404;2023-09-30T14:48:49;19.90;99.90
16785;DHT22;8509;52.178;5.404;2023-09-30T14:51:15;19.90;99.90
16785;DHT22;8509;52.178;5.404;2023-09-30T14:53:41;19.80;99.90
16785;DHT22;8509;52.178;5.404;2023-09-30T14:56:15;19.80;99.90
16785;DHT22;8509;52.178;5.404;2023-09-30T14:58:41;19.90;99.90
16785;DHT22;8509;52.178;5.404;2023-09-30T15:01:10;19.90;99.90
16785;DHT22;8509;52.178;5.404;2023-09-30T15:03:36;20.00;99.90
16785;DHT22;8509;52.178;5.404;2023-09-30T15:06:04;20.00;99.90
16785;DHT22;8509;52.178;5.404;2023-09-30T15:08:31;20.00;99.90
16785;DHT22;8509;52.178;5.404;2023-09-30T15:10:58;19.90;99.90
16785;DHT22;8509;52.178;5.404;2023-09-30T15:13:24;19.90;99.90
16785;DHT22;8509;52.178;5.404;2023-09-30T15:15:50;19.90;99.90
16785;DHT22;8509;52.178;5.404;2023-09-30T15:18:15;19.90;99.90
16785;DHT22;8509;52.178;5.404;2023-09-30T15:20:41;20.00;99.90
16785;DHT22;8509;52.178;5.404;2023-09-30T15:23:07;20.10;99.90
16785;DHT22;8509;52.178;5.404;2023-09-30T15:25:33;20.30;99.90
16785;DHT22;8509;52.178;5.404;2023-09-30T15:27:58;20.40;99.90
16785;DHT22;8509;52.178;5.404;2023-09-30T15:30:24;20.40;99.90
16785;DHT22;8509;52.178;5.404;2023-09-30T15:32:50;20.30;99.90
16785;DHT22;8509;52.178;5.404;2023-09-30T15:35:15;20.30;99.90
16785;DHT22;8509;52.178;5.404;2023-09-30T15:37:41;20.20;99.90
16785;DHT22;8509;52.178;5.404;2023-09-30T15:40:07;20.20;99.90
16785;DHT22;8509;52.178;5.404;2023-09-30T15:42:33;20.10;99.90
16785;DHT22;8509;52.178;5.404;2023-09-30T15:44:59;20.10;99.90
16785;DHT22;8509;52.178;5.404;2023-09-30T15:47:24;20.00;99.90
16785;DHT22;8509;52.178;5.404;2023-09-30T15:49:50;19.80;99.90
16785;DHT22;8509;52.178;5.404;2023-09-30T15:52:16;19.80;99.90
16785;DHT22;8509;52.178;5.404;2023-09-30T15:54:42;19.70;99.90
16785;DHT22;8509;52.178;5.404;2023-09-30T15:57:08;19.60;99.90